Time;durP1;ratioP1;P1;durP2;ratioP2;P2;SDS_P1;SDS_P2;PMS_P1;PMS_P2;Temp;Humidity;BMP_temperature;BMP_pressure;BME280_temperature;BME280_humidity;BME280_pressure;Samples;Min_cycle;Max_cycle;Signal;HPM_P1;HPM_P2
2023/05/17 00:01:50;;;;;;;27.80;8.90;;;12.90;99.90;;;13.46;83.06;102427.88;4929658;29;20043;-68
2023/05/17 00:04:19;;;;;;;19.00;7.68;;;13.10;99.90;;;13.34;82.49;102425.09;4926354;29;20075;-68
2023/05/17 00:06:47;;;;;;;24.70;8.35;;;13.00;99.90;;;13.17;83.11;102400.16;4929066;29;20056;-68
2023/05/17 00:09:17;;;;;;;20.65;8.93;;;12.90;99.90;;;13.36;83.41;102423.34;4926840;29;20078;-69
2023/05/17 00:11:45;;;;;;;23.13;8.60;;;13.00;99.90;;;13.32;83.87;102421.53;4928634;29;20059;-68
2023/05/17 00:14:14;;;;;;;18.20;8.05;;;13.00;99.90;;;13.38;84.20;102424.25;4927786;29;20036;-68
2023/05/17 00:16:42;;;;;;;19.60;8.43;;;13.00;99.90;;;13.42;83.74;102433.16;4927274;29;20055;-68
2023/05/17 00:19:11;;;;;;;20.35;8.23;;;13.00;99.90;;;13.26;83.77;102432.13;4928278;29;20056;-68
2023/05/17 00:21:39;;;;;;;21.20;8.65;;;12.90;99.90;;;13.17;84.75;102423.16;4926426;29;20040;-68
2023/05/17 00:24:08;;;;;;;22.02;8.20;;;12.80;99.90;;;13.20;85.23;102432.06;4928859;29;20056;-68
2023/05/17 00:26:37;;;;;;;21.92;8.73;;;12.80;99.90;;;13.12;85.29;102428.44;4925824;29;20758;-69
2023/05/17 00:29:06;;;;;;;30.27;9.13;;;12.80;99.90;;;12.95;87.23;102435.28;4926050;29;20504;-68
2023/05/17 00:31:34;;;;;;;21.67;8.45;;;12.60;99.90;;;12.90;87.91;102447.63;4928483;29;20370;-68
2023/05/17 00:34:03;;;;;;;24.80;8.93;;;12.50;99.90;;;12.88;88.60;102428.13;4941077;29;20051;-68
2023/05/17 00:36:31;;;;;;;25.10;9.60;;;12.50;99.90;;;12.89;88.35;102403.34;4927737;29;20054;-68
2023/05/17 00:39:02;;;;;;;;;;;12.60;99.90;;;13.12;87.78;102416.94;4928139;29;20048;-68
2023/05/17 00:41:30;;;;;;;21.65;9.43;;;12.70;99.90;;;13.11;88.58;102418.69;4926554;29;19926;-68
2023/05/17 00:44:00;;;;;;;25.90;9.23;;;12.70;99.90;;;12.98;88.76;102424.72;4928239;29;20043;-68
2023/05/17 00:46:29;;;;;;;28.77;9.37;;;12.60;99.90;;;12.99;89.54;102428.28;4940169;29;20051;-68
2023/05/17 00:48:57;;;;;;;26.63;9.38;;;12.60;99.90;;;13.01;88.53;102423.84;4925468;29;20060;-68
2023/05/17 00:51:26;;;;;;;28.40;9.48;;;12.60;99.90;;;12.91;89.81;102422.84;4925561;29;20454;-68
2023/05/17 00:53:54;;;;;;;27.90;9.27;;;12.60;99.90;;;12.86;90.18;102435.19;4942938;29;20059;-68
2023/05/17 00:56:24;;;;;;;29.80;9.65;;;12.50;99.90;;;12.99;89.20;102430.94;4926153;29;20369;-68
2023/05/17 00:58:54;;;;;;;33.95;10.15;;;12.60;99.90;;;12.92;90.05;102427.31;4927071;29;20044;-68
2023/05/17 01:01:25;;;;;;;28.35;9.20;;;12.60;99.90;;;12.87;90.11;102421.06;4942057;29;20052;-68
2023/05/17 01:03:53;;;;;;;27.10;10.25;;;12.50;99.90;;;12.81;90.91;102426.31;4926233;29;20055;-68
2023/05/17 01:06:22;;;;;;;33.80;9.18;;;12.50;99.90;;;12.80;91.27;102426.25;4942943;29;20051;-68
2023/05/17 01:08:51;;;;;;;23.73;9.45;;;12.40;99.90;;;12.85;91.26;102419.25;4925122;29;20055;-68
2023/05/17 01:11:32;;;;;;;34.17;9.73;;;12.50;99.90;;;12.98;91.17;102416.75;4925021;29;20048;-66
2023/05/17 01:14:14;;;;;;;27.38;9.88;;;12.50;99.90;;;12.35;90.57;102297.44;4941303;29;20051;-68
2023/05/17 01:16:49;;;;;;;28.42;9.32;;;12.60;99.90;;;13.10;90.65;102418.69;4940155;29;20052;-68
2023/05/17 01:19:44;;;;;;;32.72;9.35;;;12.70;99.90;;;13.05;90.53;102423.94;4926897;28;20461;-66
2023/05/17 01:22:24;;;;;;;22.40;8.98;;;12.60;99.90;;;13.03;91.52;102415.06;4926475;29;20103;-67
2023/05/17 01:25:07;;;;;;;24.52;9.40;;;12.60;99.90;;;13.11;91.12;102415.13;4935347;29;20087;-66
2023/05/17 01:27:43;;;;;;;30.27;9.45;;;12.70;99.90;;;13.09;91.07;102412.47;4925752;29;20091;-66
2023/05/17 01:30:16;;;;;;;24.63;9.35;;;12.70;99.90;;;13.15;90.45;102412.53;4925150;29;20386;-66
2023/05/17 01:32:46;;;;;;;27.55;9.43;;;12.80;99.90;;;12.54;90.09;102310.03;4925433;29;20107;-66
2023/05/17 01:35:16;;;;;;;30.27;8.75;;;12.80;99.90;;;13.22;90.51;102427.63;4927782;29;20130;-66
2023/05/17 01:37:44;;;;;;;22.80;8.75;;;12.80;99.90;;;13.15;90.64;102423.16;4926555;29;20047;-66
2023/05/17 01:40:14;;;;;;;24.65;8.40;;;12.80;99.90;;;13.12;90.71;102431.09;4932361;29;20404;-66
2023/05/17 01:42:47;;;;;;;30.55;9.73;;;12.80;99.90;;;13.36;89.97;102431.34;4926849;29;20464;-66
2023/05/17 01:45:23;;;;;;;25.83;8.95;;;13.00;99.90;;;13.26;90.28;102431.22;4924869;29;20083;-66
2023/05/17 01:48:04;;;;;;;23.30;9.43;;;12.90;99.90;;;13.33;89.81;102427.75;4940124;29;20410;-66
2023/05/17 01:50:35;;;;;;;25.45;8.15;;;12.90;99.90;;;13.43;89.43;102434.94;4925115;29;20048;-66
2023/05/17 01:53:09;;;;;;;21.02;8.25;;;13.00;99.90;;;13.38;89.06;102437.56;4926564;29;20075;-66
2023/05/17 01:55:47;;;;;;;28.05;9.02;;;13.00;99.90;;;13.07;89.23;102413.31;4925896;29;20056;-66
2023/05/17 01:58:21;;;;;;;19.98;8.10;;;12.80;99.90;;;13.26;88.96;102433.88;4925230;29;20465;-66
2023/05/17 02:00:54;;;;;;;23.85;8.38;;;12.90;99.90;;;13.24;88.50;102417.91;4938987;29;20159;-66
2023/05/17 02:03:23;;;;;;;22.27;8.15;;;12.90;99.90;;;13.24;89.57;102422.38;4924934;29;20405;-66
2023/05/17 02:05:53;;;;;;;21.30;8.45;;;12.90;99.90;;;13.32;89.10;102424.19;4926161;29;20044;-66
2023/05/17 02:08:21;;;;;;;24.88;9.55;;;13.00;99.90;;;13.40;88.74;102433.13;4925687;29;20083;-66
2023/05/17 02:10:50;;;;;;;18.85;7.85;;;13.00;99.90;;;13.50;88.86;102424.38;4940097;28;20051;-66
2023/05/17 02:13:19;;;;;;;21.77;8.52;;;13.10;99.90;;;13.52;87.91;102427.94;4926412;29;20450;-66
2023/05/17 02:15:48;;;;;;;21.17;8.15;;;13.10;99.90;;;13.53;88.38;102427.03;4938909;29;20394;-66
2023/05/17 02:18:16;;;;;;;21.92;8.85;;;13.10;99.90;;;13.55;88.33;102435.94;4927283;29;20046;-66
2023/05/17 02:20:46;;;;;;;26.50;8.95;;;13.20;99.90;;;13.62;87.91;102428.91;4923873;29;20071;-66
2023/05/17 02:23:15;;;;;;;23.77;8.65;;;13.20;99.90;;;13.73;87.38;102431.63;4941007;28;20059;-66
2023/05/17 02:25:43;;;;;;;20.23;8.73;;;13.30;99.90;;;13.68;87.21;102431.63;4924549;29;20079;-66
2023/05/17 02:28:11;;;;;;;20.77;8.05;;;13.30;99.90;;;13.63;87.66;102432.47;4925956;29;20063;-66
2023/05/17 02:30:41;;;;;;;25.70;8.20;;;13.30;99.90;;;13.56;88.36;102419.13;4925383;29;20130;-66
2023/05/17 02:33:09;;;;;;;19.15;8.48;;;13.20;99.90;;;13.78;87.50;102420.16;4924950;29;20520;-66
2023/05/17 02:35:38;;;;;;;22.90;8.35;;;13.30;99.90;;;13.83;87.16;102441.47;4926035;29;20044;-66
2023/05/17 02:38:06;;;;;;;22.67;8.23;;;13.40;99.90;;;13.77;87.18;102444.06;4924517;29;20404;-67
2023/05/17 02:40:35;;;;;;;21.60;8.45;;;13.40;99.90;;;13.67;87.83;102439.56;4926722;29;20036;-66
2023/05/17 02:43:03;;;;;;;24.35;8.80;;;13.30;99.90;;;13.70;87.39;102444.91;4930197;29;20068;-67
2023/05/17 02:45:36;;;;;;;30.58;8.85;;;13.40;99.90;;;13.68;88.19;102446.69;4922940;29;20139;-66
2023/05/17 02:48:07;;;;;;;23.55;8.75;;;13.30;99.90;;;13.61;88.94;102444.84;4926071;28;20075;-66
2023/05/17 02:50:35;;;;;;;24.20;8.75;;;13.20;99.90;;;13.70;87.85;102445.81;4920678;29;20488;-66
2023/05/17 02:53:04;;;;;;;25.10;8.27;;;13.30;99.90;;;13.70;88.04;102439.59;4925453;29;20052;-66
2023/05/17 02:55:32;;;;;;;24.90;8.13;;;13.30;99.90;;;13.62;88.79;102443.97;4938974;29;20103;-66
2023/05/17 02:58:01;;;;;;;17.63;8.55;;;13.30;99.90;;;13.50;88.64;102440.31;4940439;29;20466;-66
2023/05/17 03:00:29;;;;;;;26.08;9.45;;;13.20;99.90;;;13.79;88.44;102447.63;4938475;29;20048;-67
2023/05/17 03:02:58;;;;;;;24.10;9.25;;;13.40;99.90;;;13.79;87.61;102448.53;4941397;29;20044;-66
2023/05/17 03:05:28;;;;;;;26.95;8.27;;;13.40;99.90;;;13.76;87.67;102442.31;4923445;29;20040;-66
2023/05/17 03:07:57;;;;;;;20.42;8.32;;;13.40;99.90;;;13.81;87.24;102451.19;4940739;29;20142;-66
2023/05/17 03:10:25;;;;;;;21.45;8.80;;;13.40;99.90;;;13.86;87.29;102449.50;4924129;29;20097;-66
2023/05/17 03:12:53;;;;;;;21.85;8.13;;;13.50;99.90;;;13.81;86.85;102432.59;4925538;29;20050;-66
2023/05/17 03:15:25;;;;;;;24.33;8.73;;;13.50;99.90;;;13.75;86.92;102445.84;4939710;29;20040;-68
2023/05/17 03:17:54;;;;;;;28.77;8.80;;;13.50;99.90;;;13.84;87.00;102446.78;4938763;29;20547;-68
2023/05/17 03:20:24;;;;;;;22.85;8.43;;;13.50;99.90;;;13.88;86.42;102439.75;4941078;29;20059;-68
2023/05/17 03:22:54;;;;;;;21.52;8.38;;;13.60;99.90;;;14.01;86.23;102449.59;4923021;29;20481;-68
2023/05/17 03:25:23;;;;;;;21.00;8.17;;;13.70;99.90;;;13.66;87.53;102448.44;4937789;29;20056;-66
2023/05/17 03:27:51;;;;;;;20.70;8.10;;;13.40;99.90;;;13.71;88.00;102444.94;4926160;29;20055;-66
2023/05/17 03:30:20;;;;;;;21.23;7.55;;;13.30;99.90;;;13.69;87.04;102444.03;4938570;29;20058;-66
2023/05/17 03:32:48;;;;;;;24.08;7.68;;;13.50;99.90;;;13.01;87.25;102329.09;4939774;29;20044;-66
2023/05/17 03:35:17;;;;;;;21.40;8.20;;;13.40;99.90;;;13.58;87.67;102446.59;4940852;28;20060;-66
2023/05/17 03:37:50;;;;;;;19.13;7.97;;;13.30;99.90;;;13.55;88.62;102446.56;4942244;28;20103;-66
2023/05/17 03:40:20;;;;;;;21.20;8.77;;;13.30;99.90;;;13.83;87.73;102457.44;4926956;29;20548;-66
2023/05/17 03:42:48;;;;;;;22.70;8.13;;;13.50;99.90;;;13.80;87.46;102465.41;4941150;29;20052;-66
2023/05/17 03:45:17;;;;;;;22.85;8.38;;;13.50;99.90;;;13.72;88.22;102462.69;4934302;29;20143;-66
2023/05/17 03:47:46;;;;;;;21.02;8.80;;;13.40;99.90;;;13.56;88.02;102469.63;4923465;29;20052;-67
2023/05/17 03:50:15;;;;;;;18.50;7.55;;;13.30;99.90;;;13.63;87.52;102467.91;4943710;28;20370;-66
2023/05/17 03:52:44;;;;;;;22.60;8.15;;;13.30;99.90;;;13.74;87.15;102474.22;4942545;29;20146;-66
2023/05/17 03:55:13;;;;;;;24.33;8.63;;;13.40;99.90;;;13.68;86.80;102475.94;4942679;28;20047;-66
2023/05/17 03:57:43;;;;;;;24.63;8.85;;;13.40;99.90;;;13.70;87.18;102476.84;4928784;29;20052;-66
2023/05/17 04:00:19;;;;;;;22.57;7.77;;;13.30;99.90;;;13.86;86.19;102478.75;4941616;29;20072;-66
2023/05/17 04:02:48;;;;;;;18.33;7.68;;;13.50;99.90;;;13.86;86.15;102471.63;4927095;29;20079;-66
2023/05/17 04:05:18;;;;;;;23.98;8.48;;;13.50;99.90;;;13.68;85.82;102476.81;4943604;29;20062;-66
2023/05/17 04:07:48;;;;;;;19.60;8.57;;;13.40;99.90;;;13.75;86.33;102477.75;4942694;29;20531;-66
2023/05/17 04:10:16;;;;;;;21.40;8.32;;;13.40;99.90;;;13.91;85.83;102482.31;4927974;29;20559;-66
2023/05/17 04:12:47;;;;;;;28.15;8.63;;;13.50;99.90;;;13.66;85.72;102483.00;4940164;29;20402;-67
2023/05/17 04:15:16;;;;;;;26.55;8.15;;;13.40;99.90;;;13.85;85.64;102485.84;4927973;29;20052;-66
2023/05/17 04:17:44;;;;;;;18.98;8.27;;;13.50;99.90;;;13.96;85.02;102486.78;4941401;28;20083;-66
2023/05/17 04:20:13;;;;;;;20.38;7.68;;;13.60;99.90;;;14.00;84.41;102488.59;4941122;29;20052;-66
2023/05/17 04:22:42;;;;;;;21.45;7.68;;;13.60;99.90;;;13.99;83.79;102499.25;4943789;29;20055;-66
2023/05/17 04:25:11;;;;;;;19.25;8.48;;;13.70;99.90;;;14.11;83.93;102507.31;4941197;29;20066;-66
2023/05/17 04:27:40;;;;;;;21.98;7.50;;;13.80;99.90;;;14.19;83.41;102508.25;4942668;29;20087;-66
2023/05/17 04:30:13;;;;;;;22.85;7.65;;;13.90;99.90;;;14.18;83.04;102514.47;4928003;29;20449;-66
2023/05/17 04:32:42;;;;;;;26.00;8.38;;;13.90;99.90;;;14.27;82.24;102511.84;4941357;29;20151;-66
2023/05/17 04:35:11;;;;;;;19.55;7.38;;;13.90;99.90;;;14.31;81.93;102527.00;4940299;29;20508;-66
2023/05/17 04:37:42;;;;;;;18.20;6.90;;;14.00;99.90;;;14.32;81.45;102528.81;4924364;29;20075;-66
2023/05/17 04:40:19;;;;;;;28.20;7.57;;;14.00;99.90;;;14.33;81.24;102523.47;4942292;28;20091;-66
2023/05/17 04:42:48;;;;;;;19.73;7.10;;;14.10;99.90;;;14.48;79.80;102535.13;4942187;29;20054;-66
2023/05/17 04:45:18;;;;;;;27.05;7.32;;;14.20;99.90;;;13.93;78.99;102433.59;4932643;29;20047;-66
2023/05/17 04:47:47;;;;;;;23.53;7.60;;;14.30;99.90;;;14.58;78.35;102528.94;4942974;29;20539;-66
2023/05/17 04:50:15;;;;;;;19.88;7.20;;;14.30;99.90;;;14.66;77.21;102538.78;4940347;29;20048;-66
2023/05/17 04:52:44;;;;;;;23.98;7.07;;;14.40;99.90;;;14.65;76.19;102544.09;4929065;29;20044;-66
2023/05/17 04:55:12;;;;;;;24.08;7.20;;;14.40;99.90;;;14.60;74.56;102552.06;4925645;29;20138;-66
2023/05/17 04:57:41;;;;;;;22.15;7.10;;;14.30;99.90;;;14.65;73.78;102557.41;4942976;29;20048;-66
2023/05/17 05:00:14;;;;;;;18.05;7.03;;;14.40;99.90;;;14.62;73.48;102560.94;4921969;29;20036;-68
2023/05/17 05:02:47;;;;;;;23.25;6.93;;;14.40;99.90;;;14.59;72.65;102560.94;4942018;29;20054;-67
2023/05/17 05:05:15;;;;;;;24.92;7.28;;;14.30;99.90;;;14.63;72.87;102569.84;4925939;29;20048;-67
2023/05/17 05:07:45;;;;;;;18.38;6.43;;;14.30;99.90;;;14.74;73.52;102574.34;4923744;29;20123;-66
2023/05/17 05:10:14;;;;;;;22.33;6.88;;;14.40;99.90;;;14.74;72.66;102571.69;4939585;29;20052;-66
2023/05/17 05:12:43;;;;;;;17.85;6.30;;;14.50;99.90;;;14.69;72.28;102580.53;4942805;28;20078;-66
2023/05/17 05:15:12;;;;;;;22.15;6.82;;;14.40;99.90;;;14.81;72.47;102580.56;4940308;29;20409;-66
2023/05/17 05:17:47;;;;;;;20.98;6.38;;;14.50;99.90;;;14.83;71.89;102577.03;4941051;29;20052;-66
2023/05/17 05:20:16;;;;;;;20.42;6.47;;;14.50;99.90;;;14.83;71.84;102585.03;4941851;29;20049;-66
2023/05/17 05:22:44;;;;;;;27.48;7.32;;;14.60;99.90;;;14.97;71.69;102591.34;4925601;29;20128;-66
2023/05/17 05:25:14;;;;;;;22.45;6.57;;;14.70;99.90;;;14.98;71.88;102571.78;4942376;29;20544;-67
2023/05/17 05:27:42;;;;;;;22.63;6.80;;;14.80;99.90;;;15.24;71.42;102596.81;4927099;29;20056;-67
2023/05/17 05:30:20;;;;;;;18.45;7.13;;;14.90;99.90;;;15.29;70.95;102596.84;4939515;29;20048;-67
2023/05/17 05:32:52;;;;;;;15.90;6.30;;;15.00;99.90;;;15.37;70.64;102593.28;4940807;29;20047;-66
2023/05/17 05:35:25;;;;;;;20.88;6.50;;;15.10;99.90;;;15.45;70.51;102600.50;4927413;29;20095;-66
2023/05/17 05:37:53;;;;;;;21.85;6.07;;;15.20;99.90;;;15.24;69.52;102611.91;4939111;28;20457;-66
2023/05/17 05:40:22;;;;;;;23.15;7.10;;;15.10;99.90;;;15.36;68.91;102606.63;4939085;29;20367;-66
2023/05/17 05:42:51;;;;;;;19.13;6.32;;;15.10;99.90;;;15.38;69.71;102611.09;4942069;29;20139;-66
2023/05/17 05:45:21;;;;;;;31.15;7.55;;;15.10;99.90;;;15.42;68.83;102611.13;4936812;29;20123;-66
2023/05/17 05:47:53;;;;;;;22.33;6.32;;;15.20;99.90;;;15.55;68.13;102623.59;4940799;29;20498;-66
2023/05/17 05:50:22;;;;;;;17.25;6.10;;;15.30;99.90;;;15.66;68.17;102627.22;4939947;28;20094;-67
2023/05/17 05:52:55;;;;;;;21.25;6.70;;;15.40;99.90;;;15.76;68.53;102631.66;4942115;29;20065;-66
2023/05/17 05:55:42;;;;;;;21.92;6.53;;;15.50;99.90;;;15.89;67.35;102638.84;4926569;29;20182;-66
2023/05/17 05:58:11;;;;;;;19.08;6.88;;;15.60;99.90;;;16.01;66.17;102644.19;4924432;29;20052;-66
2023/05/17 06:00:39;;;;;;;24.27;6.82;;;15.70;99.90;;;16.04;64.84;102638.88;4941869;29;20048;-66
2023/05/17 06:03:09;;;;;;;22.98;6.80;;;15.70;99.90;;;16.07;63.75;102646.88;4924034;29;20051;-66
2023/05/17 06:05:39;;;;;;;23.23;6.30;;;15.80;99.90;;;15.99;63.13;102652.19;4924028;29;20385;-66
2023/05/17 06:08:07;;;;;;;18.15;6.40;;;15.70;99.90;;;16.01;63.38;102649.53;4926747;29;20796;-66
2023/05/17 06:10:36;;;;;;;23.42;6.93;;;15.70;99.90;;;16.01;63.33;102646.84;4925119;29;20130;-66
2023/05/17 06:13:04;;;;;;;20.70;6.30;;;15.70;99.90;;;15.71;62.84;102649.47;4925955;29;20107;-67
2023/05/17 06:15:33;;;;;;;23.17;6.63;;;15.60;99.90;;;15.15;64.33;102644.75;4921099;29;20076;-66
2023/05/17 06:18:01;;;;;;;22.75;7.07;;;15.10;99.90;;;15.42;64.34;102649.38;4925914;29;20048;-67
2023/05/17 06:20:31;;;;;;;16.55;5.85;;;15.10;99.90;;;15.55;64.47;102653.84;4924803;29;20060;-66
2023/05/17 06:23:00;;;;;;;22.17;5.97;;;15.20;99.90;;;15.66;63.59;102654.78;4926833;29;20111;-66
2023/05/17 06:25:29;;;;;;;19.05;6.18;;;15.30;99.90;;;15.58;63.69;102651.19;4923384;29;20063;-66
2023/05/17 06:27:57;;;;;;;22.25;6.03;;;15.40;99.90;;;15.37;64.19;102654.63;4923910;29;20092;-66
2023/05/17 06:30:26;;;;;;;23.27;6.43;;;15.30;99.90;;;15.13;65.20;102662.53;4926814;29;20051;-66
2023/05/17 06:32:55;;;;;;;19.48;6.25;;;14.90;99.90;;;15.41;65.07;102665.34;4936254;29;20060;-66
2023/05/17 06:35:23;;;;;;;23.25;7.28;;;15.10;99.90;;;15.61;64.46;102660.97;4939542;29;20405;-66
2023/05/17 06:37:53;;;;;;;22.17;6.90;;;15.30;99.90;;;15.33;63.88;102662.59;4925497;29;20047;-67
2023/05/17 06:40:22;;;;;;;19.87;6.90;;;15.30;99.90;;;14.68;65.22;102661.31;4925686;29;20512;-67
2023/05/17 06:42:51;;;;;;;20.90;5.95;;;14.50;99.90;;;15.01;65.12;102656.22;4924391;29;20328;-66
2023/05/17 06:45:20;;;;;;;20.92;6.32;;;14.70;99.90;;;14.94;64.31;102665.94;4926157;29;20086;-66
2023/05/17 06:47:48;;;;;;;18.85;6.15;;;14.70;99.90;;;15.01;63.76;102673.09;4930345;29;20140;-66
2023/05/17 06:50:17;;;;;;;22.08;6.30;;;14.70;99.90;;;15.14;63.03;102674.06;4923409;29;20044;-67
2023/05/17 06:52:48;;;;;;;19.20;5.72;;;14.90;99.90;;;15.16;63.03;102670.53;4926181;29;20131;-67
2023/05/17 06:55:18;;;;;;;16.85;5.90;;;14.90;99.90;;;15.34;63.60;102678.63;4924436;29;20056;-67
2023/05/17 06:57:46;;;;;;;14.88;5.43;;;15.10;99.90;;;15.44;62.47;102682.25;4925179;29;20707;-67
2023/05/17 07:00:16;;;;;;;18.70;5.50;;;15.20;99.90;;;15.46;61.86;102677.84;4925327;29;20046;-67
2023/05/17 07:02:44;;;;;;;16.00;5.75;;;15.30;99.90;;;15.64;61.06;102682.34;4924378;29;20066;-67
2023/05/17 07:05:13;;;;;;;22.55;6.50;;;15.40;99.90;;;15.15;61.77;102691.84;4926072;29;20048;-67
2023/05/17 07:07:41;;;;;;;19.85;6.60;;;15.00;99.90;;;15.32;62.25;102691.06;4923603;29;20047;-67
2023/05/17 07:10:10;;;;;;;19.65;6.28;;;15.00;99.90;;;15.45;61.93;102693.84;4944632;28;20485;-67
2023/05/17 07:12:40;;;;;;;24.73;6.35;;;15.20;99.90;;;15.17;62.06;102688.31;4927930;29;20445;-67
2023/05/17 07:15:10;;;;;;;29.27;6.50;;;15.10;99.90;;;14.84;63.26;102685.44;4930295;29;20055;-67
2023/05/17 07:17:38;;;;;;;25.53;6.07;;;14.70;99.90;;;14.40;64.85;102687.72;4929158;29;20059;-66
2023/05/17 07:20:08;;;;;;;23.73;6.47;;;14.20;99.90;;;14.48;64.88;102695.75;4929317;29;20298;-67
2023/05/17 07:22:37;;;;;;;24.38;6.60;;;14.30;99.90;;;14.47;65.34;102696.66;4944046;29;20500;-68
2023/05/17 07:25:07;;;;;;;20.52;6.13;;;14.20;99.90;;;14.50;64.29;102694.00;4934330;29;20116;-67
2023/05/17 07:27:36;;;;;;;20.08;6.05;;;14.30;99.90;;;14.48;64.26;102712.66;4930872;29;20051;-68
2023/05/17 07:30:08;;;;;;;20.45;5.88;;;14.20;99.90;;;14.65;63.89;102688.84;4927784;29;20408;-67
2023/05/17 07:32:36;;;;;;;23.33;6.70;;;14.40;99.90;;;14.55;62.26;102705.63;4928089;29;20052;-67
2023/05/17 07:35:06;;;;;;;21.92;6.57;;;14.40;99.90;;;14.83;62.94;102682.72;4929577;29;20047;-66
2023/05/17 07:37:34;;;;;;;21.70;5.78;;;14.60;99.90;;;15.23;61.85;102704.31;4943378;29;20056;-68
2023/05/17 07:40:04;;;;;;;19.42;5.90;;;15.00;99.90;;;15.35;60.96;102711.50;4928838;29;20047;-67
2023/05/17 07:42:35;;;;;;;17.05;6.28;;;15.10;99.90;;;15.54;61.02;102716.09;4929578;29;20147;-67
2023/05/17 07:45:05;;;;;;;17.35;6.10;;;15.30;99.90;;;15.80;60.96;102718.88;4927291;29;20494;-68
2023/05/17 07:47:34;;;;;;;16.67;5.90;;;15.60;99.90;;;15.50;61.11;102620.03;4941150;29;20112;-68
2023/05/17 07:50:03;;;;;;;24.02;6.65;;;15.80;99.90;;;16.29;61.16;102723.47;4926721;29;20046;-67
2023/05/17 07:52:32;;;;;;;24.70;5.60;;;16.00;99.90;;;16.34;59.33;102727.03;4929338;29;20454;-67
2023/05/17 07:55:00;;;;;;;22.00;5.95;;;16.10;99.90;;;16.32;59.07;102719.91;4927846;29;20070;-67
2023/05/17 07:57:29;;;;;;;19.73;5.88;;;16.10;99.90;;;16.49;60.01;102723.53;4928518;29;20044;-67
2023/05/17 07:59:57;;;;;;;18.60;5.75;;;16.20;99.90;;;16.78;60.16;102730.66;4928162;29;20083;-67
2023/05/17 08:02:29;;;;;;;18.10;6.22;;;16.50;99.90;;;16.87;58.89;102725.31;4927422;29;20052;-66
2023/05/17 08:04:58;;;;;;;18.17;5.65;;;16.70;99.90;;;17.14;58.19;102722.63;4925146;29;20083;-67
2023/05/17 08:07:26;;;;;;;19.35;6.10;;;16.90;99.90;;;17.24;57.45;102726.16;4929506;29;20229;-67
2023/05/17 08:09:54;;;;;;;16.88;5.28;;;17.00;99.90;;;16.94;56.54;102737.78;4929856;29;20047;-67
2023/05/17 08:12:23;;;;;;;18.17;5.53;;;16.80;99.90;;;17.24;56.28;102734.19;4926388;29;20044;-66
2023/05/17 08:14:51;;;;;;;15.93;5.82;;;17.00;99.90;;;16.49;54.90;102729.75;4928912;29;20058;-67
2023/05/17 08:17:21;;;;;;;19.73;5.93;;;16.50;99.90;;;15.98;55.85;102732.28;4927195;29;20073;-67
2023/05/17 08:19:50;;;;;;;15.50;5.47;;;16.00;99.90;;;15.90;56.03;102742.03;4927738;29;20051;-67
2023/05/17 08:22:19;;;;;;;14.93;5.50;;;15.70;99.90;;;15.64;57.13;102730.38;4927605;29;20056;-67
2023/05/17 08:24:48;;;;;;;16.83;5.20;;;15.50;99.90;;;15.70;58.39;102744.63;4926973;29;20063;-67
2023/05/17 08:27:16;;;;;;;14.27;5.38;;;15.40;99.90;;;16.07;57.65;102742.97;4928460;29;20047;-66
2023/05/17 08:29:45;;;;;;;21.38;5.55;;;15.70;99.90;;;15.97;57.98;102749.16;4932718;29;20411;-67
2023/05/17 08:32:14;;;;;;;15.43;5.13;;;15.70;99.90;;;16.16;55.67;102745.69;4929450;29;20055;-67
2023/05/17 08:34:44;;;;;;;17.73;5.00;;;15.80;99.90;;;16.48;54.14;102752.03;4925908;29;20058;-67
2023/05/17 08:37:14;;;;;;;13.80;4.40;;;16.20;99.90;;;16.78;53.58;102746.69;4926459;29;20048;-67
2023/05/17 08:39:43;;;;;;;11.98;4.55;;;16.50;99.90;;;17.08;53.72;102746.69;4927827;29;20071;-67
2023/05/17 08:42:11;;;;;;;15.07;4.95;;;16.80;99.90;;;17.29;52.49;102755.56;4941967;29;20150;-67
2023/05/17 08:44:40;;;;;;;14.20;4.72;;;17.10;99.90;;;17.27;51.00;102722.56;4927482;29;20047;-67
2023/05/17 08:47:11;;;;;;;13.80;4.75;;;17.20;99.90;;;17.51;49.59;102752.88;4927668;29;20067;-67
2023/05/17 08:49:40;;;;;;;11.77;4.20;;;17.30;99.90;;;17.62;50.85;102745.72;4925814;29;20048;-67
2023/05/17 08:52:09;;;;;;;9.03;4.07;;;17.40;99.90;;;17.89;50.40;102748.28;4939871;29;20063;-67
2023/05/17 08:54:39;;;;;;;10.43;4.70;;;17.70;99.90;;;18.16;51.25;102755.28;4925499;29;20048;-67
2023/05/17 08:57:09;;;;;;;8.93;4.30;;;17.90;99.90;;;18.20;48.17;102757.03;4928011;29;20052;-67
2023/05/17 08:59:39;;;;;;;11.57;4.95;;;18.00;99.90;;;18.31;48.25;102755.19;4926591;29;20072;-67
2023/05/17 09:02:08;;;;;;;8.10;4.13;;;18.10;99.90;;;18.47;47.62;102762.28;4926852;29;20088;-67
2023/05/17 09:04:37;;;;;;;11.52;4.55;;;18.30;99.90;;;18.36;47.37;102750.72;4927358;29;20090;-67
2023/05/17 09:07:06;;;;;;;11.85;4.82;;;18.20;99.90;;;18.14;47.82;102757.06;4925673;29;20437;-67
2023/05/17 09:09:35;;;;;;;10.00;4.40;;;17.90;99.90;;;18.34;47.02;102754.28;4928652;29;20354;-67
2023/05/17 09:12:05;;;;;;;10.63;4.20;;;18.10;99.90;;;18.49;47.41;102755.13;4924908;29;20088;-67
2023/05/17 09:14:35;;;;;;;9.93;4.32;;;18.30;99.90;;;18.73;47.49;102759.41;4925554;29;20064;-67
2023/05/17 09:17:03;;;;;;;12.73;4.43;;;18.50;99.90;;;18.80;46.04;102763.81;4927519;29;20377;-67
2023/05/17 09:19:32;;;;;;;13.27;4.85;;;18.60;99.90;;;18.84;46.10;102763.78;4926028;29;20055;-67
2023/05/17 09:22:01;;;;;;;11.63;4.63;;;18.60;99.90;;;18.33;48.35;102764.09;4926608;29;20400;-67
2023/05/17 09:24:30;;;;;;;14.40;4.47;;;18.20;99.90;;;18.68;46.91;102767.47;4926540;29;20060;-67
2023/05/17 09:27:04;;;;;;;10.10;4.28;;;18.40;99.90;;;18.80;47.12;102762.03;4925928;29;20059;-67
2023/05/17 09:29:33;;;;;;;10.73;4.55;;;18.50;99.90;;;19.00;47.08;102763.66;4924594;29;20107;-67
2023/05/17 09:32:19;;;;;;;12.23;4.30;;;18.70;99.90;;;19.19;46.96;102760.78;4924841;29;20116;-67
2023/05/17 09:34:48;;;;;;;15.75;4.82;;;19.00;99.90;;;19.22;46.65;102751.84;4924985;29;20063;-67
2023/05/17 09:37:19;;;;;;;10.50;4.40;;;19.00;99.90;;;19.23;46.09;102753.59;4928085;29;20099;-68
2023/05/17 09:39:48;;;;;;;;;;;19.00;99.90;;;18.85;46.47;102754.81;4939720;29;20074;-67
2023/05/17 09:42:18;;;;;;;13.88;4.57;;;18.80;99.90;;;19.13;47.34;102759.94;4927211;29;19933;-68
2023/05/17 09:44:52;;;;;;;14.48;5.00;;;18.80;99.90;;;19.32;45.86;102759.78;4925501;29;20076;-68
2023/05/17 09:47:28;;;;;;;13.60;4.80;;;19.10;99.90;;;19.27;44.75;102752.66;4925712;29;20050;-68
2023/05/17 09:49:59;;;;;;;15.10;5.60;;;19.10;99.90;;;19.22;44.75;102774.16;4924274;29;20398;-68
2023/05/17 09:52:30;;;;;;;12.25;4.50;;;19.10;99.90;;;19.01;44.78;102770.81;4927240;29;20066;-67
2023/05/17 09:55:00;;;;;;;10.52;4.50;;;18.90;99.90;;;19.17;46.94;102764.38;4925436;29;20102;-68
2023/05/17 09:57:38;;;;;;;9.10;4.33;;;18.90;99.90;;;19.33;44.99;102774.09;4925901;29;20055;-67
2023/05/17 10:00:10;;;;;;;13.20;5.18;;;19.10;99.90;;;19.37;44.54;102760.66;4927639;29;20046;-67
2023/05/17 10:02:47;;;;;;;12.30;4.15;;;19.20;99.90;;;19.33;44.80;102761.59;4924804;29;20044;-67
2023/05/17 10:05:17;;;;;;;12.82;4.20;;;19.20;99.90;;;19.03;44.18;102760.97;4925742;29;20055;-67
2023/05/17 10:07:47;;;;;;;10.18;4.30;;;18.90;99.90;;;18.21;45.14;102764.19;4926608;29;20111;-67
2023/05/17 10:10:18;;;;;;;10.32;4.60;;;18.40;99.90;;;18.51;46.61;102766.72;4924500;29;20059;-67
2023/05/17 10:12:49;;;;;;;14.75;4.75;;;18.30;99.90;;;18.78;46.17;102762.94;4938672;29;20385;-67
2023/05/17 10:15:18;;;;;;;9.82;4.13;;;18.60;99.90;;;18.99;46.31;102764.56;4926923;29;20047;-67
2023/05/17 10:17:47;;;;;;;11.70;4.60;;;18.70;99.90;;;18.94;44.63;102769.97;4924879;29;20436;-67
2023/05/17 10:20:17;;;;;;;14.32;5.18;;;18.70;99.90;;;19.01;44.86;102733.25;4925972;29;20048;-67